LSZB Airport Information

Runway Information
Runway 14 Length 4954 ft width 98 ft
Elevation 1668 ft Threshold 656 ft Heading 140
Runway 32 Length 4954 ft Width 98 ft
Elevation 1674 ft Threshold 360 ft Heading 320
Runway 14L Length 2133 ft width 98 ft
Elevation 0 ft Threshold 0 ft Heading 140
Runway 32R Length 2133 ft Width 98 ft
Elevation 0 ft Threshold 0 ft Heading 320
Runway 14R Length 2125 ft width 98 ft
Elevation 0 ft Threshold 0 ft Heading 140
Runway 32L Length 2125 ft Width 98 ft
Elevation 0 ft Threshold 0 ft Heading 320
Airport Frequencies
Type A/D Name APP/DEP Frequency 127.325 MHZ
Type ATIS Name ATIS Frequency 125.125 MHZ
Type MISC Name GLIDER Frequency 123.4 MHZ
Type OPS Name ALPAR Frequency 135.75 MHZ
Type TWR Name TWR Frequency 121.025 MHZ
Airport Navaids
Type NDB Name Bern Frequency 335 KHZ
Type NDB Name Muri Frequency 312 KHZ
Type NDB Name Schupberg Frequency 357 KHZ
Airport Weather Information & NOTAM
ADDS - METARS form results

(0859 UTC 07 July 2020)
Data provider http://aviationweather.gov/metar/data/
 
METAR text: LSZB 070850Z 32004KT CAVOK 18/07 Q1020 NOSIG
Conditions at: LSZB (BERN/BELP , CH) observed 0850 UTC 07 July 2020
Temperature: 18.0°C (64°F)
Dewpoint: 7.0°C (45°F) [RH = 49%]
Pressure (altimeter): 30.12 inches Hg (1020.0 mb)
Winds: from the NW (320 degrees) at 5 MPH (4 knots; 2.1 m/s)
Visibility: 6 or more miles (10+ km)
Ceiling: ceiling and visibility are OK
Clouds: unknown
Weather: no significant weather observed at this time

METAR text: LSZB 070820Z AUTO VRB03KT CAVOK 18/07 Q1020
Conditions at: LSZB (BERN/BELP , CH) observed 0820 UTC 07 July 2020
Temperature: 18.0°C (64°F)
Dewpoint: 7.0°C (45°F) [RH = 49%]
Pressure (altimeter): 30.12 inches Hg (1020.0 mb)
Winds: variable direction winds at 3 MPH (3 knots; 1.5 m/s)
Visibility: 6 or more miles (10+ km)
Ceiling: ceiling and visibility are OK
Clouds: unknown
Weather: no significant weather observed at this time

Forecast for: LSZB (BERN/BELP , CH)
Text: TAF LSZB 070825Z 0709/0718 04006KT CAVOK
Forecast period: 0900 to 1800 UTC 07 July 2020
Forecast type: FROM: standard forecast or significant change
Winds: from the NE (40 degrees) at 7 MPH (6 knots; 3.1 m/s)
Visibility: 6 or more miles 10+ km)
Ceiling: unknown
Clouds: missing
Weather: NSW  (no significant weather)